sensor_id;sensor_type;location;lat;lon;timestamp;P1;durP1;ratioP1;P2;durP2;ratioP2
55146;SDS011;41039;49.830;23.988;2022-11-15T00:01:00;33.50;;;18.50;;
55146;SDS011;41039;49.830;23.988;2022-11-15T00:03:26;25.23;;;15.13;;
55146;SDS011;41039;49.830;23.988;2022-11-15T00:05:52;29.67;;;17.92;;
55146;SDS011;41039;49.830;23.988;2022-11-15T00:08:17;26.30;;;15.70;;
55146;SDS011;41039;49.830;23.988;2022-11-15T00:10:43;27.20;;;15.43;;
55146;SDS011;41039;49.830;23.988;2022-11-15T00:13:18;24.35;;;14.95;;
55146;SDS011;41039;49.830;23.988;2022-11-15T00:15:43;21.70;;;13.90;;
55146;SDS011;41039;49.830;23.988;2022-11-15T00:18:12;27.77;;;16.85;;
55146;SDS011;41039;49.830;23.988;2022-11-15T00:20:37;25.55;;;14.82;;
55146;SDS011;41039;49.830;23.988;2022-11-15T00:23:03;26.75;;;14.85;;
55146;SDS011;41039;49.830;23.988;2022-11-15T00:25:29;25.50;;;15.73;;
55146;SDS011;41039;49.830;23.988;2022-11-15T00:27:57;22.98;;;13.98;;
55146;SDS011;41039;49.830;23.988;2022-11-15T00:30:23;28.52;;;16.58;;
55146;SDS011;41039;49.830;23.988;2022-11-15T00:32:49;25.63;;;16.30;;
55146;SDS011;41039;49.830;23.988;2022-11-15T00:35:14;26.88;;;15.85;;
55146;SDS011;41039;49.830;23.988;2022-11-15T00:37:39;28.45;;;15.90;;
55146;SDS011;41039;49.830;23.988;2022-11-15T00:40:04;26.55;;;15.70;;
55146;SDS011;41039;49.830;23.988;2022-11-15T00:42:30;28.70;;;16.77;;
55146;SDS011;41039;49.830;23.988;2022-11-15T00:44:55;23.58;;;14.88;;
55146;SDS011;41039;49.830;23.988;2022-11-15T00:47:20;24.92;;;15.65;;
55146;SDS011;41039;49.830;23.988;2022-11-15T00:49:46;23.48;;;14.82;;
55146;SDS011;41039;49.830;23.988;2022-11-15T00:52:11;29.77;;;16.83;;
55146;SDS011;41039;49.830;23.988;2022-11-15T00:54:36;23.45;;;14.52;;
55146;SDS011;41039;49.830;23.988;2022-11-15T00:57:01;23.90;;;14.48;;
55146;SDS011;41039;49.830;23.988;2022-11-15T00:59:26;25.55;;;15.20;;
55146;SDS011;41039;49.830;23.988;2022-11-15T01:01:52;23.75;;;14.05;;
55146;SDS011;41039;49.830;23.988;2022-11-15T01:04:17;22.75;;;14.27;;
55146;SDS011;41039;49.830;23.988;2022-11-15T01:06:42;23.58;;;13.50;;
55146;SDS011;41039;49.830;23.988;2022-11-15T01:09:07;23.00;;;13.05;;
55146;SDS011;41039;49.830;23.988;2022-11-15T01:11:33;26.77;;;15.38;;
55146;SDS011;41039;49.830;23.988;2022-11-15T01:13:58;21.17;;;12.98;;
55146;SDS011;41039;49.830;23.988;2022-11-15T01:16:23;26.02;;;14.73;;
55146;SDS011;41039;49.830;23.988;2022-11-15T01:18:49;23.60;;;14.07;;
55146;SDS011;41039;49.830;23.988;2022-11-15T01:21:16;27.20;;;16.30;;
55146;SDS011;41039;49.830;23.988;2022-11-15T01:23:42;29.63;;;16.70;;
55146;SDS011;41039;49.830;23.988;2022-11-15T01:26:08;27.33;;;16.33;;
55146;SDS011;41039;49.830;23.988;2022-11-15T01:28:35;26.02;;;16.35;;
55146;SDS011;41039;49.830;23.988;2022-11-15T01:31:00;27.35;;;15.57;;
55146;SDS011;41039;49.830;23.988;2022-11-15T01:33:27;28.73;;;17.25;;
55146;SDS011;41039;49.830;23.988;2022-11-15T01:35:52;26.25;;;15.40;;
55146;SDS011;41039;49.830;23.988;2022-11-15T01:38:17;26.00;;;15.38;;
55146;SDS011;41039;49.830;23.988;2022-11-15T01:40:42;25.30;;;14.25;;
55146;SDS011;41039;49.830;23.988;2022-11-15T01:43:24;28.15;;;16.27;;
55146;SDS011;41039;49.830;23.988;2022-11-15T01:45:51;30.00;;;15.35;;
55146;SDS011;41039;49.830;23.988;2022-11-15T01:48:18;28.02;;;15.70;;
55146;SDS011;41039;49.830;23.988;2022-11-15T01:50:43;27.73;;;15.52;;
55146;SDS011;41039;49.830;23.988;2022-11-15T01:53:09;27.83;;;17.15;;
55146;SDS011;41039;49.830;23.988;2022-11-15T01:55:35;29.02;;;16.85;;
55146;SDS011;41039;49.830;23.988;2022-11-15T01:58:01;29.00;;;15.95;;
55146;SDS011;41039;49.830;23.988;2022-11-15T02:00:27;27.23;;;15.82;;
55146;SDS011;41039;49.830;23.988;2022-11-15T02:02:53;30.50;;;16.75;;
55146;SDS011;41039;49.830;23.988;2022-11-15T02:05:18;29.08;;;16.40;;
55146;SDS011;41039;49.830;23.988;2022-11-15T02:07:44;27.90;;;15.02;;
55146;SDS011;41039;49.830;23.988;2022-11-15T02:10:10;27.58;;;16.70;;
55146;SDS011;41039;49.830;23.988;2022-11-15T02:12:35;30.98;;;15.82;;
55146;SDS011;41039;49.830;23.988;2022-11-15T02:15:01;30.17;;;17.33;;
55146;SDS011;41039;49.830;23.988;2022-11-15T02:27:37;30.48;;;16.88;;
55146;SDS011;41039;49.830;23.988;2022-11-15T02:37:57;27.92;;;14.23;;
55146;SDS011;41039;49.830;23.988;2022-11-15T02:42:50;33.40;;;15.88;;
55146;SDS011;41039;49.830;23.988;2022-11-15T02:45:37;31.70;;;16.75;;
55146;SDS011;41039;49.830;23.988;2022-11-15T02:48:04;29.90;;;14.88;;
55146;SDS011;41039;49.830;23.988;2022-11-15T02:50:31;34.00;;;16.13;;
55146;SDS011;41039;49.830;23.988;2022-11-15T02:52:57;32.33;;;16.23;;
55146;SDS011;41039;49.830;23.988;2022-11-15T02:55:36;83.05;;;27.63;;
55146;SDS011;41039;49.830;23.988;2022-11-15T03:00:35;24.65;;;12.73;;
55146;SDS011;41039;49.830;23.988;2022-11-15T03:05:39;52.22;;;15.50;;
55146;SDS011;41039;49.830;23.988;2022-11-15T03:13:36;52.58;;;17.30;;
55146;SDS011;41039;49.830;23.988;2022-11-15T03:16:10;70.55;;;14.18;;
55146;SDS011;41039;49.830;23.988;2022-11-15T03:18:38;81.70;;;17.48;;
55146;SDS011;41039;49.830;23.988;2022-11-15T03:21:07;88.45;;;17.35;;
55146;SDS011;41039;49.830;23.988;2022-11-15T03:23:33;133.88;;;20.67;;
55146;SDS011;41039;49.830;23.988;2022-11-15T03:26:00;56.78;;;15.88;;
55146;SDS011;41039;49.830;23.988;2022-11-15T03:28:28;68.13;;;17.42;;
55146;SDS011;41039;49.830;23.988;2022-11-15T03:30:57;40.88;;;15.07;;
55146;SDS011;41039;49.830;23.988;2022-11-15T03:33:24;31.58;;;13.98;;
55146;SDS011;41039;49.830;23.988;2022-11-15T03:35:50;102.60;;;20.75;;
55146;SDS011;41039;49.830;23.988;2022-11-15T03:38:20;57.55;;;19.48;;
55146;SDS011;41039;49.830;23.988;2022-11-15T03:46:10;57.42;;;21.15;;
55146;SDS011;41039;49.830;23.988;2022-11-15T03:48:39;61.80;;;19.40;;
55146;SDS011;41039;49.830;23.988;2022-11-15T03:51:05;62.28;;;22.25;;
55146;SDS011;41039;49.830;23.988;2022-11-15T03:53:30;64.63;;;21.05;;
55146;SDS011;41039;49.830;23.988;2022-11-15T03:55:56;65.60;;;20.20;;
55146;SDS011;41039;49.830;23.988;2022-11-15T03:58:22;55.35;;;18.80;;
55146;SDS011;41039;49.830;23.988;2022-11-15T04:00:47;79.28;;;22.73;;
55146;SDS011;41039;49.830;23.988;2022-11-15T04:03:12;86.43;;;26.77;;
55146;SDS011;41039;49.830;23.988;2022-11-15T04:05:37;86.63;;;22.30;;
55146;SDS011;41039;49.830;23.988;2022-11-15T04:08:03;38.67;;;18.60;;
55146;SDS011;41039;49.830;23.988;2022-11-15T04:10:28;113.75;;;21.08;;
